Time;durP1;ratioP1;P1;durP2;ratioP2;P2;SDS_P1;SDS_P2;PMS_P1;PMS_P2;Temp;Humidity;BMP_temperature;BMP_pressure;BME280_temperature;BME280_humidity;BME280_pressure;Samples;Min_cycle;Max_cycle;Signal;HPM_P1;HPM_P2
2023/08/21 00:02:33;;;;;;;8.70;5.40;;;;;;;20.53;80.63;99912.70;435284;1256;178182;-61
2023/08/21 00:12:39;;;;;;;6.50;5.10;;;;;;;20.44;81.19;99908.85;437077;1253;139696;-61
2023/08/21 00:22:45;;;;;;;6.10;5.20;;;;;;;20.37;81.71;99905.23;435131;1257;140037;-61
2023/08/21 00:32:51;;;;;;;7.80;5.50;;;;;;;20.31;82.26;99904.95;435084;1257;139693;-61
2023/08/21 00:42:57;;;;;;;4.80;4.40;;;;;;;20.24;82.98;99900.09;435123;1253;140042;-61
2023/08/21 00:53:03;;;;;;;5.10;4.70;;;;;;;20.17;83.34;99905.64;435119;1258;139478;-61
2023/08/21 01:03:10;;;;;;;4.60;4.30;;;;;;;20.05;83.76;99902.51;435242;1253;138885;-62
2023/08/21 01:13:25;;;;;;;5.40;4.90;;;;;;;19.92;84.21;99903.26;435602;1253;139107;-62
2023/08/21 01:23:33;;;;;;;5.20;4.40;;;;;;;19.78;84.77;99890.02;435696;1257;139688;-61
2023/08/21 01:33:41;;;;;;;;;;;;;;;19.68;85.53;99885.86;435838;1257;138991;-62
2023/08/21 01:43:45;;;;;;;;;;;;;;;19.59;86.01;99889.02;435143;1256;125377;-62
2023/08/21 01:53:51;;;;;;;7.20;5.70;;;;;;;19.50;86.38;99891.13;435393;1256;125600;-61
2023/08/21 02:03:58;;;;;;;5.70;5.00;;;;;;;19.41;86.64;99886.73;435599;1258;139038;-61
2023/08/21 02:14:04;;;;;;;5.90;5.30;;;;;;;19.36;87.21;99886.27;435249;1256;138957;-63
2023/08/21 02:24:10;;;;;;;6.10;5.50;;;;;;;19.29;87.78;99893.88;435144;1256;140332;-62
2023/08/21 02:34:16;;;;;;;6.30;5.60;;;;;;;19.26;88.79;99893.27;434908;1256;139244;-61
2023/08/21 02:44:23;;;;;;;6.20;5.60;;;;;;;19.22;89.18;99886.96;435374;1256;139143;-61
2023/08/21 02:54:29;;;;;;;15.40;6.60;;;;;;;19.14;89.48;99871.32;435191;1258;139349;-61
2023/08/21 03:04:35;;;;;;;7.00;5.90;;;;;;;19.06;89.89;99874.76;435294;1257;139173;-62
2023/08/21 03:14:41;;;;;;;8.60;7.80;;;;;;;19.00;90.63;99878.80;435547;1253;139258;-59
2023/08/21 03:24:47;;;;;;;9.00;7.90;;;;;;;18.94;91.59;99893.42;435822;1256;141078;-61
2023/08/21 03:34:53;;;;;;;9.40;8.40;;;;;;;18.86;92.24;99904.23;435465;1257;140015;-62
2023/08/21 03:44:59;;;;;;;10.10;9.10;;;;;;;18.86;93.32;99911.86;435518;1257;139216;-62
2023/08/21 03:55:06;;;;;;;14.60;11.90;;;;;;;18.98;94.65;99913.06;435688;1257;140131;-63
2023/08/21 04:05:11;;;;;;;13.00;11.70;;;;;;;19.22;95.99;99913.02;435985;1257;140359;-61
2023/08/21 04:15:18;;;;;;;14.40;13.10;;;;;;;19.46;97.35;99925.77;435486;1254;140482;-61
2023/08/21 04:25:24;;;;;;;13.40;12.10;;;;;;;19.77;98.44;99918.55;435625;1254;140167;-62
2023/08/21 04:35:30;;;;;;;14.80;11.30;;;;;;;20.20;98.91;99915.96;435751;1257;140285;-62
2023/08/21 04:45:37;;;;;;;18.80;15.00;;;;;;;20.50;98.54;99913.17;436002;1256;140891;-60
2023/08/21 04:55:44;;;;;;;16.70;13.70;;;;;;;20.69;98.15;99917.16;436510;1256;139400;-63
2023/08/21 05:05:56;;;;;;;14.80;13.40;;;;;;;20.81;97.76;99935.36;435806;1257;139778;-62
2023/08/21 05:16:02;;;;;;;18.30;16.00;;;;;;;20.81;97.71;100002.79;435999;1257;139486;-62
2023/08/21 05:26:08;;;;;;;15.00;12.10;;;;;;;20.68;97.98;100050.98;435518;1257;139454;-63
2023/08/21 05:36:14;;;;;;;12.70;11.50;;;;;;;20.51;98.60;100087.71;435250;1257;142194;-62
2023/08/21 05:46:19;;;;;;;10.60;9.60;;;;;;;20.33;98.70;100093.73;435274;1257;140063;-62
2023/08/21 05:56:25;;;;;;;11.60;9.50;;;;;;;20.12;98.92;100080.59;435068;1257;139263;-63
2023/08/21 06:06:31;;;;;;;9.90;8.90;;;;;;;19.81;99.58;100071.33;435235;1253;140752;-64
2023/08/21 06:16:37;;;;;;;10.50;9.60;;;;;;;19.66;100.00;100062.96;435334;1258;139749;-63
2023/08/21 06:26:44;;;;;;;11.10;10.00;;;;;;;19.66;100.00;100059.52;435626;1259;139487;-63
2023/08/21 06:36:50;;;;;;;15.60;11.30;;;;;;;19.74;100.00;100051.17;434996;1258;139971;-59
2023/08/21 06:46:55;;;;;;;11.70;10.60;;;;;;;20.00;100.00;100047.09;435028;1257;142466;-68
2023/08/21 06:57:01;;;;;;;12.70;11.40;;;;;;;20.53;100.00;100047.73;436776;1257;139419;-63
2023/08/21 07:07:08;;;;;;;11.20;10.10;;;;;;;21.66;100.00;100050.58;435248;1256;139484;-66
2023/08/21 07:17:14;;;;;;;9.30;7.60;;;;;;;27.21;100.00;100047.73;435614;1254;139687;-61
2023/08/21 07:27:20;;;;;;;4.40;4.00;;;;;;;35.06;87.95;100046.61;435502;1257;139384;-67
2023/08/21 07:37:26;;;;;;;2.70;2.50;;;;;;;40.55;68.37;100047.42;438074;1256;140851;-74
2023/08/21 07:47:32;;;;;;;2.40;2.20;;;;;;;44.41;50.26;100045.60;437672;1257;138391;-72
2023/08/21 07:57:42;;;;;;;2.50;1.80;;;;;;;45.90;40.07;100044.95;437880;1256;138241;-69
2023/08/21 08:07:48;;;;;;;3.30;2.90;;;;;;;46.72;33.73;100044.59;437894;1257;139823;-67
2023/08/21 08:17:56;;;;;;;3.60;2.30;;;;;;;44.64;32.77;100038.25;436351;1254;138501;-72
2023/08/21 08:28:02;;;;;;;2.40;2.20;;;;;;;47.20;30.71;100040.73;438015;1254;138342;-67
2023/08/21 08:38:08;;;;;;;3.40;2.20;;;;;;;43.94;28.27;100045.05;436134;1257;138676;-71
2023/08/21 08:48:15;;;;;;;3.40;2.50;;;;;;;39.55;30.02;100044.16;435182;1257;139035;-68
2023/08/21 08:58:21;;;;;;;9.60;3.50;;;;;;;36.76;32.25;100036.23;435676;1257;139084;-72
2023/08/21 09:08:27;;;;;;;1.80;1.70;;;;;;;34.67;33.10;100032.02;438099;1257;139266;-68
2023/08/21 09:18:35;;;;;;;1.80;1.70;;;;;;;33.14;34.16;100035.17;436497;1254;138400;-73
2023/08/21 09:28:43;;;;;;;3.60;1.50;;;;;;;32.61;35.14;100038.96;437691;1257;138594;-70
2023/08/21 09:38:48;;;;;;;;;;;;;;;31.97;35.33;100032.69;435365;1254;138879;-68
2023/08/21 09:48:55;;;;;;;2.30;2.10;;;;;;;31.25;36.21;100023.15;435822;1257;125150;-61
2023/08/21 09:59:01;;;;;;;3.70;2.40;;;;;;;30.83;36.48;100016.86;435291;1257;138420;-68
2023/08/21 10:09:09;;;;;;;2.60;1.80;;;;;;;30.55;36.84;100013.09;435504;1254;140561;-64
2023/08/21 10:19:18;;;;;;;2.80;2.00;;;;;;;30.32;36.91;100005.36;435767;1256;139606;-61
2023/08/21 10:29:24;;;;;;;5.00;2.90;;;;;;;29.91;37.16;100008.59;435198;1254;139859;-68
2023/08/21 10:39:31;;;;;;;3.90;2.50;;;;;;;29.62;37.71;100010.67;435630;1257;138542;-70
2023/08/21 10:49:37;;;;;;;2.60;1.80;;;;;;;29.30;37.77;100011.17;437604;1253;138680;-72
2023/08/21 10:59:51;;;;;;;1.40;1.30;;;;;;;28.98;37.45;100005.61;436995;1254;138544;-68
2023/08/21 11:09:58;;;;;;;3.10;1.80;;;;;;;28.73;37.83;100003.93;435551;1256;138663;-64
2023/08/21 11:20:05;;;;;;;5.40;2.10;;;;;;;28.46;38.40;100004.10;435058;1254;138942;-77
2023/08/21 11:30:13;;;;;;;3.00;1.50;;;;;;;28.38;38.70;100000.89;437775;1255;138598;-64
2023/08/21 11:40:19;;;;;;;5.80;2.60;;;;;;;28.42;38.67;99994.41;435415;1257;139145;-67
2023/08/21 11:50:27;;;;;;;5.30;2.00;;;;;;;28.52;38.55;99985.95;434713;1256;139070;-60
2023/08/21 12:00:33;;;;;;;2.60;1.70;;;;;;;28.89;38.55;99979.76;434853;1257;180002;-60
2023/08/21 12:10:40;;;;;;;3.10;1.80;;;;;;;29.02;37.96;99979.37;436324;1254;140197;-60
2023/08/21 12:20:47;;;;;;;4.60;1.70;;;;;;;28.87;37.95;99977.77;436940;1254;138198;-61
2023/08/21 12:30:52;;;;;;;2.10;1.00;;;;;;;28.69;38.17;99976.81;435353;1255;138809;-61
2023/08/21 12:40:58;;;;;;;7.50;1.60;;;;;;;28.59;38.46;99965.38;435474;1253;138438;-60
2023/08/21 12:51:05;;;;;;;5.50;1.80;;;;;;;28.45;38.43;99954.48;435524;1257;138487;-59
2023/08/21 13:01:10;;;;;;;4.90;1.90;;;;;;;28.50;38.79;99952.12;435216;1254;138255;-60
2023/08/21 13:11:18;;;;;;;2.10;1.40;;;;;;;28.63;38.84;99944.17;435285;1256;139062;-60
2023/08/21 13:21:22;;;;;;;;;;;;;;;28.61;38.46;99933.95;435414;1257;138379;-60
2023/08/21 13:31:28;;;;;;;2.70;1.30;;;;;;;28.60;38.35;99939.20;435549;1254;124893;-62
2023/08/21 13:41:34;;;;;;;1.30;1.20;;;;;;;28.51;38.27;99941.49;435457;1256;139296;-59
2023/08/21 13:51:40;;;;;;;2.50;1.00;;;;;;;28.36;38.73;99935.98;435668;1256;140215;-59
2023/08/21 14:01:46;;;;;;;3.30;1.40;;;;;;;28.23;39.41;99935.80;435683;1253;138384;-61
2023/08/21 14:11:52;;;;;;;2.40;1.80;;;;;;;28.10;39.28;99934.27;435671;1254;139529;-61
2023/08/21 14:22:00;;;;;;;2.60;1.90;;;;;;;27.97;38.90;99931.21;435975;1253;138816;-60
2023/08/21 14:32:06;;;;;;;4.50;2.10;;;;;;;27.86;39.41;99931.52;435865;1257;138415;-60
2023/08/21 14:42:12;;;;;;;3.80;1.70;;;;;;;27.79;39.91;99932.34;435393;1257;138526;-59
2023/08/21 14:52:18;;;;;;;1.70;1.20;;;;;;;27.87;40.00;99925.88;435320;1257;139262;-59
2023/08/21 15:02:24;;;;;;;2.80;2.10;;;;;;;27.92;40.08;99912.89;435490;1255;138289;-63
2023/08/21 15:12:30;;;;;;;1.60;1.50;;;;;;;27.87;40.46;99910.52;435156;1253;138976;-62
2023/08/21 15:22:36;;;;;;;5.20;1.70;;;;;;;27.71;40.48;99908.52;435209;1256;138385;-61
2023/08/21 15:32:44;;;;;;;4.20;2.10;;;;;;;27.58;40.71;99900.83;435397;1254;138391;-63
2023/08/21 15:42:50;;;;;;;4.40;2.20;;;;;;;27.49;40.91;99900.45;435272;1257;138345;-62
2023/08/21 15:52:56;;;;;;;2.70;1.70;;;;;;;27.37;41.24;99901.55;434799;1252;139983;-64
2023/08/21 16:03:01;;;;;;;5.60;1.60;;;;;;;27.28;41.63;99901.40;435231;1257;139177;-63
2023/08/21 16:13:08;;;;;;;6.00;2.80;;;;;;;27.24;41.73;99894.30;435133;1257;139582;-61
2023/08/21 16:23:14;;;;;;;3.20;1.80;;;;;;;27.05;42.18;99891.80;435032;1254;139106;-66
2023/08/21 16:33:19;;;;;;;2.70;2.20;;;;;;;26.89;42.64;99892.11;435157;1257;138256;-66
2023/08/21 16:43:25;;;;;;;5.70;2.20;;;;;;;26.60;43.74;99895.81;435255;1256;138981;-62
2023/08/21 16:53:31;;;;;;;9.50;4.40;;;;;;;26.31;45.34;99904.54;434840;1257;139010;-63
2023/08/21 17:03:37;;;;;;;3.30;2.10;;;;;;;26.27;45.89;99902.77;434891;1257;139702;-62
2023/08/21 17:13:45;;;;;;;4.80;3.40;;;;;;;26.16;46.35;99900.39;435048;1254;139727;-61
2023/08/21 17:23:51;;;;;;;6.90;3.40;;;;;;;25.83;47.27;99891.52;435215;1256;138552;-61
2023/08/21 17:33:56;;;;;;;7.80;2.80;;;;;;;25.44;48.64;99883.44;434802;1254;138455;-62
2023/08/21 17:44:03;;;;;;;6.80;2.20;;;;;;;24.97;50.35;99891.90;434991;1253;139084;-62
2023/08/21 17:54:09;;;;;;;7.10;2.80;;;;;;;24.59;50.23;99903.23;435438;1253;139132;-62
2023/08/21 18:04:15;;;;;;;5.20;2.70;;;;;;;24.28;50.94;99907.73;435736;1253;139213;-59
2023/08/21 18:14:22;;;;;;;4.70;2.70;;;;;;;23.93;52.33;99905.04;435560;1253;138249;-60
2023/08/21 18:24:28;;;;;;;4.30;2.70;;;;;;;23.61;54.00;99911.23;435611;1257;138777;-60
2023/08/21 18:34:34;;;;;;;3.60;2.30;;;;;;;23.33;55.64;99919.88;435373;1254;139277;-59
2023/08/21 18:44:44;;;;;;;6.00;3.90;;;;;;;22.98;56.97;99921.80;435879;1253;140092;-59
2023/08/21 18:54:50;;;;;;;5.90;3.20;;;;;;;22.69;58.33;99931.04;435426;1253;138481;-58
2023/08/21 19:04:59;;;;;;;14.60;5.30;;;;;;;22.50;59.87;99931.27;435520;1256;139694;-60
2023/08/21 19:15:06;;;;;;;6.40;3.30;;;;;;;22.36;61.07;99935.44;435760;1253;139099;-60
2023/08/21 19:25:16;;;;;;;15.30;4.60;;;;;;;22.21;61.83;99935.51;435299;1256;138984;-60
2023/08/21 19:35:22;;;;;;;13.40;8.00;;;;;;;21.94;62.59;99933.73;435724;1256;140185;-59
2023/08/21 19:45:29;;;;;;;15.40;8.30;;;;;;;21.63;63.82;99928.06;435059;1257;140232;-60
2023/08/21 19:55:35;;;;;;;8.50;6.90;;;;;;;21.39;65.31;99928.20;435470;1257;139532;-60
2023/08/21 20:05:41;;;;;;;9.70;5.80;;;;;;;21.21;66.56;99930.20;435107;1256;139396;-59
2023/08/21 20:15:50;;;;;;;16.20;6.20;;;;;;;21.05;67.50;99934.48;435312;1256;138928;-59
2023/08/21 20:25:57;;;;;;;15.50;12.20;;;;;;;20.87;68.40;99940.98;436081;1254;139373;-61
2023/08/21 20:36:04;;;;;;;5.10;4.60;;;;;;;20.75;69.52;99945.25;435496;1257;139782;-60
2023/08/21 20:46:11;;;;;;;11.20;6.50;;;;;;;20.59;70.48;99943.21;435425;1258;140319;-59
2023/08/21 20:56:16;;;;;;;14.00;8.70;;;;;;;20.43;71.43;99943.64;435071;1254;140334;-59
2023/08/21 21:06:25;;;;;;;9.30;6.90;;;;;;;20.30;72.52;99949.67;434751;1253;139625;-60
2023/08/21 21:16:31;;;;;;;12.90;10.40;;;;;;;20.12;73.39;99943.44;435395;1258;139746;-60
2023/08/21 21:26:39;;;;;;;8.70;6.20;;;;;;;19.93;74.40;99942.91;435214;1253;139797;-59
2023/08/21 21:36:45;;;;;;;9.00;6.30;;;;;;;19.77;75.50;99948.23;435057;1256;139950;-60
2023/08/21 21:46:51;;;;;;;9.70;6.60;;;;;;;19.54;76.27;99955.89;435224;1257;139699;-60
2023/08/21 21:56:57;;;;;;;7.50;5.70;;;;;;;19.35;76.75;99962.16;435629;1256;139749;-60
2023/08/21 22:07:02;;;;;;;11.40;5.70;;;;;;;19.19;77.74;99966.49;435409;1257;139238;-62
2023/08/21 22:17:09;;;;;;;8.10;7.10;;;;;;;19.01;78.11;99971.32;435629;1257;139608;-63
2023/08/21 22:27:15;;;;;;;7.90;7.20;;;;;;;18.86;78.96;99967.72;435509;1256;140437;-60
2023/08/21 22:37:21;;;;;;;7.50;6.80;;;;;;;18.76;79.74;99969.34;435542;1254;139090;-62
2023/08/21 22:47:26;;;;;;;10.00;7.40;;;;;;;18.56;80.40;99968.17;435471;1257;139297;-60
2023/08/21 22:57:32;;;;;;;11.90;7.80;;;;;;;18.45;81.17;99968.84;435294;1253;139767;-63
2023/08/21 23:07:38;;;;;;;10.30;7.00;;;;;;;18.33;81.57;99967.58;435276;1257;140090;-61
2023/08/21 23:17:44;;;;;;;8.00;6.30;;;;;;;18.23;82.03;99966.05;435357;1256;139348;-61
2023/08/21 23:27:50;;;;;;;8.60;5.80;;;;;;;18.10;82.42;99962.22;435464;1257;139573;-63
2023/08/21 23:37:56;;;;;;;8.30;6.00;;;;;;;18.00;82.80;99961.28;434933;1257;139592;-69
2023/08/21 23:48:05;;;;;;;8.50;6.50;;;;;;;17.86;83.48;99965.16;434865;1257;139472;-62
2023/08/21 23:58:11;;;;;;;6.20;5.60;;;;;;;17.76;83.90;99957.60;435541;1254;139965;-61
